createdAt,value
2019-01-27T00:00:14.842Z,5.20
2019-01-27T00:06:55.918Z,5.20
2019-01-27T00:09:32.304Z,5.10
2019-01-27T00:12:12.141Z,5.10
2019-01-27T00:14:48.684Z,5.10
2019-01-27T00:17:26.291Z,5.10
2019-01-27T00:20:06.858Z,5.10
2019-01-27T00:22:43.162Z,5.10
2019-01-27T00:25:13.530Z,5.10
2019-01-27T00:28:05.973Z,5.10
2019-01-27T00:30:50.451Z,5.10
2019-01-27T00:33:37.253Z,5.10
2019-01-27T00:36:38.049Z,5.10
2019-01-27T00:39:14.291Z,5.10
2019-01-27T00:41:49.415Z,5.00
2019-01-27T00:44:26.080Z,5.00
2019-01-27T00:47:01.336Z,4.90
2019-01-27T00:49:32.686Z,4.90
2019-01-27T00:52:30.804Z,4.90
2019-01-27T00:55:35.514Z,4.80
2019-01-27T00:58:35.115Z,4.80
2019-01-27T01:01:17.199Z,4.80
2019-01-27T01:04:32.424Z,4.80
2019-01-27T01:07:07.108Z,4.80
2019-01-27T01:09:49.762Z,4.70
2019-01-27T01:12:18.697Z,4.70
2019-01-27T01:15:16.665Z,4.70
2019-01-27T01:17:48.283Z,4.70
2019-01-27T01:20:19.158Z,4.80
2019-01-27T01:22:50.003Z,4.80
2019-01-27T01:25:22.373Z,4.80
2019-01-27T01:27:52.998Z,4.70
2019-01-27T01:30:27.377Z,4.60
2019-01-27T01:32:57.983Z,4.60
2019-01-27T01:35:30.165Z,4.60
2019-01-27T01:38:00.131Z,4.60
2019-01-27T01:40:32.275Z,4.60
2019-01-27T01:43:04.638Z,4.70
2019-01-27T01:45:40.797Z,4.70
2019-01-27T01:48:12.276Z,4.80
2019-01-27T01:50:42.457Z,4.80
2019-01-27T01:53:12.745Z,4.80
2019-01-27T01:55:45.320Z,4.80
2019-01-27T01:58:15.597Z,4.80
2019-01-27T02:00:48.531Z,4.80
2019-01-27T02:03:23.421Z,4.70
2019-01-27T02:05:53.587Z,4.60
2019-01-27T02:08:23.728Z,4.60
2019-01-27T02:10:54.199Z,4.60
2019-01-27T02:13:24.438Z,4.60
2019-01-27T02:16:08.709Z,4.60
2019-01-27T02:18:42.248Z,4.50
2019-01-27T02:21:13.415Z,4.40
2019-01-27T02:23:45.607Z,4.40
2019-01-27T02:26:15.724Z,4.30
2019-01-27T02:28:46.066Z,4.30
2019-01-27T02:31:16.216Z,4.30
2019-01-27T02:33:46.430Z,4.30
2019-01-27T02:36:19.473Z,4.30
2019-01-27T02:38:49.962Z,4.30
2019-01-27T02:41:20.243Z,4.30
2019-01-27T02:43:50.884Z,4.30
2019-01-27T02:46:21.232Z,4.30
2019-01-27T02:48:51.618Z,4.20
2019-01-27T02:51:25.818Z,4.20
2019-01-27T02:53:56.059Z,4.20
2019-01-27T02:56:26.777Z,4.20
2019-01-27T02:58:56.836Z,4.20
2019-01-27T03:01:27.391Z,4.20
2019-01-27T03:03:57.692Z,4.20
2019-01-27T03:06:51.692Z,4.20
2019-01-27T03:09:25.697Z,4.20
2019-01-27T03:11:56.047Z,4.20
2019-01-27T03:14:26.490Z,4.30
2019-01-27T03:16:59.843Z,4.40
2019-01-27T03:19:48.354Z,4.50
2019-01-27T03:22:18.606Z,4.60
2019-01-27T03:24:49.037Z,4.70
2019-01-27T03:27:19.208Z,4.70
2019-01-27T03:29:49.533Z,4.80
2019-01-27T03:32:19.805Z,4.90
2019-01-27T03:34:49.965Z,4.90
2019-01-27T03:37:23.048Z,4.90
2019-01-27T03:39:53.124Z,5.00
2019-01-27T03:42:22.976Z,5.10
2019-01-27T03:44:52.879Z,5.10
2019-01-27T03:47:22.848Z,5.20
2019-01-27T03:49:53.059Z,5.20
2019-01-27T03:52:22.912Z,5.10
2019-01-27T03:54:52.862Z,5.20
2019-01-27T03:57:22.892Z,5.20
2019-01-27T03:59:52.990Z,5.20
2019-01-27T04:02:23.044Z,5.20
2019-01-27T04:04:52.953Z,5.20
2019-01-27T04:07:22.844Z,5.30
2019-01-27T04:09:53.012Z,5.30
2019-01-27T04:12:23.393Z,5.40
2019-01-27T04:14:53.253Z,5.40
2019-01-27T04:17:23.165Z,5.40
2019-01-27T04:19:53.514Z,5.50
2019-01-27T04:22:23.617Z,5.50
2019-01-27T04:24:53.547Z,5.50
2019-01-27T04:27:23.400Z,5.40
2019-01-27T04:29:53.689Z,5.30
2019-01-27T04:32:23.575Z,5.30
2019-01-27T04:34:53.775Z,5.30
2019-01-27T04:37:23.621Z,5.30
2019-01-27T04:39:53.537Z,5.30
2019-01-27T04:42:33.811Z,5.30
2019-01-27T04:44:58.193Z,5.40
2019-01-27T04:47:32.391Z,5.40
2019-01-27T04:50:02.704Z,5.40
2019-01-27T04:52:32.921Z,5.40
2019-01-27T04:55:03.559Z,5.50
2019-01-27T04:57:33.502Z,5.50
2019-01-27T05:00:07.102Z,5.50
2019-01-27T05:02:53.962Z,5.50
2019-01-27T05:05:23.963Z,5.50
2019-01-27T05:07:54.009Z,5.50
2019-01-27T05:10:24.090Z,5.60
2019-01-27T05:12:53.948Z,5.60
2019-01-27T05:15:25.306Z,5.60
2019-01-27T05:17:55.266Z,5.70
2019-01-27T05:20:25.442Z,5.70
2019-01-27T05:22:55.398Z,5.80
2019-01-27T05:25:27.942Z,5.90
2019-01-27T05:27:57.762Z,5.90
2019-01-27T05:30:32.230Z,5.90
2019-01-27T05:33:02.334Z,5.80
2019-01-27T05:35:32.236Z,5.80
2019-01-27T05:38:02.133Z,5.80
2019-01-27T05:40:32.612Z,5.90
2019-01-27T05:43:02.604Z,5.90
2019-01-27T05:45:32.715Z,5.80
2019-01-27T05:48:02.663Z,5.80
2019-01-27T05:50:33.066Z,5.80
2019-01-27T05:53:03.267Z,5.80
2019-01-27T05:55:33.514Z,5.80
2019-01-27T05:58:03.416Z,5.80
2019-01-27T06:00:37.722Z,5.80
2019-01-27T06:03:07.727Z,5.90
2019-01-27T06:06:03.594Z,5.90
2019-01-27T06:08:36.070Z,5.90
2019-01-27T06:11:05.970Z,5.80
2019-01-27T06:13:35.956Z,5.80
2019-01-27T06:16:06.069Z,5.80
2019-01-27T06:18:36.025Z,5.80
2019-01-27T06:21:06.025Z,5.90
2019-01-27T06:23:35.926Z,5.90
2019-01-27T06:26:05.835Z,5.90
2019-01-27T06:28:35.950Z,5.90
2019-01-27T06:31:06.075Z,5.90
2019-01-27T06:33:46.351Z,5.80
2019-01-27T06:36:16.240Z,5.80
2019-01-27T06:38:46.296Z,5.80
2019-01-27T06:41:16.232Z,5.80
2019-01-27T06:43:46.155Z,5.80
2019-01-27T06:46:16.126Z,5.80
2019-01-27T06:48:46.122Z,5.80
2019-01-27T06:51:16.051Z,5.80
2019-01-27T06:53:46.156Z,5.80
2019-01-27T06:56:16.203Z,5.70
2019-01-27T06:59:12.549Z,5.70
2019-01-27T07:01:56.524Z,5.80
2019-01-27T07:04:48.506Z,5.80
2019-01-27T07:07:25.044Z,5.80
2019-01-27T07:10:16.542Z,5.80
2019-01-27T07:13:02.359Z,5.80
2019-01-27T07:15:54.849Z,5.90
2019-01-27T07:18:53.340Z,5.90
2019-01-27T07:21:41.023Z,5.80
2019-01-27T07:24:26.343Z,5.80
2019-01-27T07:27:14.051Z,5.70
2019-01-27T07:30:05.414Z,5.70
2019-01-27T07:32:53.198Z,5.70
2019-01-27T07:35:51.729Z,5.60
2019-01-27T07:38:33.760Z,5.60
2019-01-27T07:41:25.903Z,5.60
2019-01-27T07:44:21.894Z,5.60
2019-01-27T07:47:14.466Z,5.60
2019-01-27T07:50:06.738Z,5.60
2019-01-27T07:52:56.796Z,5.70
2019-01-27T07:55:37.948Z,5.70
2019-01-27T07:58:17.531Z,5.70
2019-01-27T08:01:12.848Z,5.80
2019-01-27T08:03:57.798Z,5.80
2019-01-27T08:06:33.566Z,5.80
2019-01-27T08:09:36.040Z,5.90
2019-01-27T08:12:26.028Z,6.00
2019-01-27T08:15:26.451Z,6.10
2019-01-27T08:18:16.419Z,6.10
2019-01-27T08:21:06.177Z,6.20
2019-01-27T08:23:46.787Z,6.30
2019-01-27T08:26:39.891Z,6.40
2019-01-27T08:29:20.572Z,6.40
2019-01-27T08:31:58.570Z,6.50
2019-01-27T08:34:53.477Z,6.60
2019-01-27T08:37:49.288Z,6.50
2019-01-27T08:40:37.051Z,6.50
2019-01-27T08:48:20.715Z,6.50
2019-01-27T08:50:54.345Z,6.40
2019-01-27T08:53:30.654Z,6.40
2019-01-27T08:56:02.224Z,6.40
2019-01-27T08:58:39.601Z,6.40
2019-01-27T09:04:29.569Z,6.40
2019-01-27T09:07:15.796Z,6.30
2019-01-27T09:10:08.076Z,6.40
2019-01-27T09:12:56.700Z,6.40
2019-01-27T09:16:04.433Z,6.40
2019-01-27T09:18:58.985Z,6.50
2019-01-27T09:21:54.993Z,6.60
2019-01-27T09:24:38.839Z,6.60
2019-01-27T09:27:20.149Z,6.70
2019-01-27T09:30:08.172Z,6.70
2019-01-27T09:32:57.507Z,6.70
2019-01-27T09:35:46.661Z,6.70
2019-01-27T09:38:42.820Z,6.70
2019-01-27T09:41:21.249Z,6.80
2019-01-27T09:44:08.965Z,6.80
2019-01-27T09:47:07.550Z,6.80
2019-01-27T09:50:09.307Z,6.90
2019-01-27T09:53:02.874Z,6.70
2019-01-27T09:55:44.650Z,6.80
2019-01-27T09:58:50.604Z,6.70
2019-01-27T10:01:34.824Z,6.70
2019-01-27T10:04:11.485Z,6.80
2019-01-27T10:06:49.855Z,6.80
2019-01-27T10:09:33.614Z,6.80
2019-01-27T10:12:20.520Z,7.00
2019-01-27T10:15:16.522Z,7.20
2019-01-27T10:18:03.404Z,7.40
2019-01-27T10:21:00.935Z,7.50
2019-01-27T10:23:56.774Z,7.60
2019-01-27T10:26:45.147Z,7.60
2019-01-27T10:29:24.693Z,7.70
2019-01-27T10:32:09.743Z,7.80
2019-01-27T10:35:01.070Z,7.90
2019-01-27T10:37:45.405Z,7.90
2019-01-27T10:40:39.779Z,8.00
2019-01-27T10:44:10.632Z,8.00
2019-01-27T10:50:14.971Z,8.20
2019-01-27T10:57:03.832Z,8.10
2019-01-27T11:11:31.053Z,8.00
2019-01-27T11:46:57.280Z,8.40
2019-01-27T14:07:42.400Z,8.80
2019-01-27T14:10:51.750Z,8.80
2019-01-27T14:13:25.021Z,8.70
2019-01-27T14:15:55.523Z,8.60
2019-01-27T14:18:25.480Z,8.60
2019-01-27T14:20:55.470Z,8.60
2019-01-27T14:23:25.505Z,8.50
2019-01-27T14:25:55.491Z,8.40
2019-01-27T14:28:25.873Z,8.30
2019-01-27T14:30:55.938Z,8.30
2019-01-27T14:33:26.215Z,8.30
2019-01-27T14:35:56.772Z,8.40
2019-01-27T14:38:27.209Z,8.50
2019-01-27T14:40:57.455Z,8.60
2019-01-27T14:43:27.752Z,8.60
2019-01-27T14:45:58.340Z,8.70
2019-01-27T14:48:41.228Z,8.70
2019-01-27T14:51:32.476Z,8.70
2019-01-27T14:54:24.770Z,8.60
2019-01-27T15:13:51.800Z,8.50
2019-01-27T15:16:31.904Z,8.50
2019-01-27T15:24:54.555Z,8.60
2019-01-27T15:30:33.687Z,8.60
2019-01-27T15:33:06.486Z,8.60
2019-01-27T15:35:36.897Z,8.60
2019-01-27T15:38:07.241Z,8.60
2019-01-27T15:40:37.414Z,8.60
2019-01-27T15:43:27.354Z,8.50
2019-01-27T15:45:57.533Z,8.40
2019-01-27T15:48:27.736Z,8.30
2019-01-27T15:50:57.941Z,8.20
2019-01-27T15:53:47.509Z,8.10
2019-01-27T15:56:37.344Z,8.10
2019-01-27T15:59:27.353Z,8.10
2019-01-27T16:02:16.827Z,8.00
2019-01-27T16:04:46.754Z,7.90
2019-01-27T16:07:36.544Z,7.90
2019-01-27T16:10:08.636Z,7.90
2019-01-27T16:12:39.047Z,7.90
2019-01-27T16:15:12.960Z,7.90
2019-01-27T16:17:43.616Z,7.90
2019-01-27T16:20:33.461Z,8.00
2019-01-27T16:26:10.755Z,7.90
2019-01-27T16:28:41.194Z,7.90
2019-01-27T16:34:14.344Z,7.80
2019-01-27T16:37:04.236Z,7.80
2019-01-27T16:39:54.157Z,7.80
2019-01-27T16:42:24.416Z,7.70
2019-01-27T16:45:14.669Z,7.60
2019-01-27T16:48:07.949Z,7.60
2019-01-27T16:50:57.622Z,7.50
2019-01-27T16:53:47.551Z,7.50
2019-01-27T16:56:37.358Z,7.30
2019-01-27T16:59:07.680Z,7.20
2019-01-27T17:01:37.668Z,7.10
2019-01-27T17:07:12.369Z,6.90
2019-01-27T17:09:43.972Z,6.90
2019-01-27T17:12:34.678Z,6.80
2019-01-27T17:15:24.728Z,6.70
2019-01-27T17:20:56.223Z,6.60
2019-01-27T17:23:55.112Z,6.60
2019-01-27T17:26:26.041Z,6.60
2019-01-27T17:31:29.783Z,6.50
2019-01-27T17:34:00.035Z,6.40
2019-01-27T17:36:30.211Z,6.50
2019-01-27T17:39:00.524Z,6.40
2019-01-27T17:41:31.959Z,6.40
2019-01-27T17:44:21.796Z,6.40
2019-01-27T17:47:11.578Z,6.30
2019-01-27T17:54:07.084Z,6.20
2019-01-27T17:56:46.164Z,6.20
2019-01-27T17:59:36.925Z,6.20
2019-01-27T18:02:26.642Z,6.20
2019-01-27T18:05:25.935Z,6.20
2019-01-27T18:08:24.341Z,6.20
2019-01-27T18:14:25.941Z,6.20
2019-01-27T18:20:29.853Z,6.10
2019-01-27T18:23:39.859Z,6.00
2019-01-27T18:26:10.497Z,6.00
2019-01-27T18:28:46.328Z,6.10
2019-01-27T18:31:37.378Z,6.00
2019-01-27T18:34:27.058Z,6.00
2019-01-27T18:36:57.889Z,6.10
2019-01-27T18:39:47.772Z,6.10
2019-01-27T18:42:17.867Z,6.10
2019-01-27T18:44:48.929Z,6.10
2019-01-27T18:50:39.180Z,6.10
2019-01-27T18:53:17.960Z,6.10
2019-01-27T18:59:35.160Z,6.00
2019-01-27T19:05:17.764Z,6.10
2019-01-27T19:08:28.087Z,6.10
2019-01-27T19:14:24.422Z,6.10
2019-01-27T19:17:19.764Z,6.10
2019-01-27T19:20:13.543Z,6.10
2019-01-27T19:26:24.364Z,6.10
2019-01-27T19:29:14.232Z,6.10
2019-01-27T19:32:10.423Z,6.00
2019-01-27T19:35:09.340Z,6.00
2019-01-27T19:37:49.368Z,5.90
2019-01-27T19:40:58.844Z,5.90
2019-01-27T19:43:44.888Z,5.90
2019-01-27T19:46:54.564Z,5.80
2019-01-27T19:53:34.445Z,5.80
2019-01-27T20:10:35.136Z,5.80
2019-01-27T20:13:35.704Z,5.80
2019-01-27T20:16:28.716Z,5.70
2019-01-27T20:36:46.130Z,5.20
2019-01-27T20:39:36.532Z,5.10
2019-01-27T20:42:26.442Z,5.10
2019-01-27T20:46:18.607Z,5.20
2019-01-27T20:52:07.393Z,5.10
2019-01-27T20:58:15.279Z,5.00
2019-01-27T21:01:14.012Z,5.00
2019-01-27T21:04:07.892Z,4.90
2019-01-27T21:10:25.848Z,4.60
2019-01-27T21:13:25.942Z,4.50
2019-01-27T21:19:47.779Z,4.40
2019-01-27T21:22:18.806Z,4.30
2019-01-27T21:24:50.196Z,4.20
2019-01-27T21:27:25.413Z,4.30
2019-01-27T21:33:18.446Z,4.20
2019-01-27T21:38:50.393Z,3.80
2019-01-27T21:44:25.117Z,3.70
2019-01-27T21:46:56.139Z,3.70
2019-01-27T21:49:30.945Z,3.70
2019-01-27T22:15:09.046Z,3.30
2019-01-27T22:17:42.139Z,3.30
2019-01-27T22:20:16.776Z,3.20
2019-01-27T22:23:04.156Z,3.20
2019-01-27T22:28:35.036Z,3.30
2019-01-27T22:31:06.080Z,3.30
2019-01-27T22:33:37.017Z,3.30
2019-01-27T22:36:07.073Z,3.30
2019-01-27T22:38:41.036Z,3.30
2019-01-27T22:41:11.295Z,3.30
2019-01-27T22:43:42.136Z,3.30
2019-01-27T22:46:13.193Z,3.30
2019-01-27T22:49:04.559Z,3.30
2019-01-27T22:51:34.899Z,3.30
2019-01-27T22:54:26.240Z,3.40
2019-01-27T22:56:56.742Z,3.40
2019-01-27T22:59:28.969Z,3.50
2019-01-27T23:01:59.157Z,3.40
2019-01-27T23:07:38.016Z,3.40
2019-01-27T23:10:08.578Z,3.40
2019-01-27T23:12:38.858Z,3.40
2019-01-27T23:15:27.919Z,3.40
2019-01-27T23:18:12.104Z,3.50
2019-01-27T23:20:45.257Z,3.50
2019-01-27T23:23:17.268Z,3.50
2019-01-27T23:25:50.320Z,3.50
2019-01-27T23:28:41.063Z,3.50
2019-01-27T23:31:35.631Z,3.50
2019-01-27T23:34:29.084Z,3.50
2019-01-27T23:37:18.590Z,3.60
2019-01-27T23:39:49.229Z,3.60
2019-01-27T23:42:40.643Z,3.70
2019-01-27T23:45:30.219Z,3.60
2019-01-27T23:48:19.768Z,3.60
2019-01-27T23:51:09.402Z,3.60
2019-01-27T23:53:43.844Z,3.60
2019-01-27T23:56:33.701Z,3.50
2019-01-27T23:59:04.235Z,3.50
